createdAt,value
2017-09-25T00:01:35.033Z,37.20
2017-09-25T00:04:01.433Z,38.28
2017-09-25T00:06:27.758Z,36.05
2017-09-25T00:08:55.604Z,42.85
2017-09-25T00:11:22.898Z,43.87
2017-09-25T00:13:50.356Z,47.83
2017-09-25T00:16:19.528Z,38.85
2017-09-25T00:18:45.897Z,52.30
2017-09-25T00:21:12.260Z,40.67
2017-09-25T00:23:39.962Z,39.42
2017-09-25T00:26:06.382Z,40.45
2017-09-25T00:28:32.787Z,35.60
2017-09-25T00:30:59.172Z,41.35
2017-09-25T00:33:25.551Z,42.33
2017-09-25T00:35:51.962Z,40.45
2017-09-25T00:38:19.460Z,41.17
2017-09-25T00:40:46.232Z,35.83
2017-09-25T00:43:12.618Z,42.58
2017-09-25T00:45:39.597Z,40.90
2017-09-25T00:48:06.022Z,42.20
2017-09-25T00:50:32.415Z,29.95
2017-09-25T00:53:11.053Z,33.55
2017-09-25T00:55:49.898Z,38.20
2017-09-25T00:58:16.313Z,33.03
2017-09-25T01:00:54.976Z,37.88
2017-09-25T01:03:35.273Z,33.60
2017-09-25T01:06:13.889Z,40.95
2017-09-25T01:08:40.272Z,35.92
2017-09-25T01:11:07.343Z,36.30
2017-09-25T01:13:33.739Z,36.55
2017-09-25T01:16:00.847Z,31.15
2017-09-25T01:18:27.487Z,32.58
2017-09-25T01:20:53.885Z,30.98
2017-09-25T01:23:22.150Z,40.22
2017-09-25T01:25:50.178Z,40.05
2017-09-25T01:28:16.851Z,33.97
2017-09-25T01:30:43.951Z,43.70
2017-09-25T01:33:10.317Z,39.58
2017-09-25T01:35:37.769Z,41.28
2017-09-25T01:38:04.895Z,35.65
2017-09-25T01:40:31.601Z,34.05
2017-09-25T01:42:58.875Z,31.48
2017-09-25T01:45:25.292Z,31.05
2017-09-25T01:47:51.637Z,38.83
2017-09-25T01:50:18.009Z,31.10
2017-09-25T01:52:46.351Z,28.48
2017-09-25T01:55:14.103Z,37.33
2017-09-25T01:57:40.696Z,36.38
2017-09-25T02:00:07.050Z,33.47
2017-09-25T02:02:33.418Z,41.63
2017-09-25T02:05:00.037Z,33.33
2017-09-25T02:07:27.150Z,31.92
2017-09-25T02:09:53.506Z,32.22
2017-09-25T02:12:19.892Z,30.33
2017-09-25T02:14:46.250Z,36.40
2017-09-25T02:17:12.619Z,33.33
2017-09-25T02:19:39.350Z,34.20
2017-09-25T02:22:05.692Z,32.28
2017-09-25T02:24:32.086Z,34.67
2017-09-25T02:26:58.479Z,32.05
2017-09-25T02:29:24.876Z,24.98
2017-09-25T02:31:51.237Z,27.60
2017-09-25T02:34:17.581Z,28.10
2017-09-25T02:36:44.005Z,30.85
2017-09-25T02:39:10.381Z,29.33
2017-09-25T02:41:36.751Z,38.03
2017-09-25T02:44:03.860Z,35.33
2017-09-25T02:46:30.507Z,35.55
2017-09-25T02:48:56.879Z,26.77
2017-09-25T02:51:23.261Z,29.35
2017-09-25T02:53:49.618Z,29.27
2017-09-25T02:56:16.720Z,30.67
2017-09-25T02:58:43.101Z,28.02
2017-09-25T03:01:10.208Z,45.22
2017-09-25T03:03:36.571Z,47.20
2017-09-25T03:06:03.671Z,52.88
2017-09-25T03:08:30.297Z,48.35
2017-09-25T03:10:56.631Z,56.78
2017-09-25T03:13:23.001Z,41.28
2017-09-25T03:15:50.144Z,37.22
2017-09-25T03:18:16.481Z,43.80
2017-09-25T03:20:43.654Z,39.63
2017-09-25T03:23:11.383Z,29.10
2017-09-25T03:25:37.818Z,32.42
2017-09-25T03:28:04.286Z,31.20
2017-09-25T03:30:30.689Z,24.45
2017-09-25T03:32:57.810Z,27.20
2017-09-25T03:35:24.181Z,22.08
2017-09-25T03:37:50.529Z,24.83
2017-09-25T03:40:17.227Z,28.33
2017-09-25T03:42:43.603Z,20.20
2017-09-25T03:45:09.984Z,28.17
2017-09-25T03:47:37.144Z,30.40
2017-09-25T03:50:04.291Z,29.10
2017-09-25T03:52:30.708Z,29.90
2017-09-25T03:54:57.987Z,31.55
2017-09-25T03:57:24.449Z,26.02
2017-09-25T03:59:50.784Z,21.37
2017-09-25T04:02:17.551Z,23.90
2017-09-25T04:04:43.939Z,20.42
2017-09-25T04:07:10.330Z,37.03
2017-09-25T04:09:37.433Z,37.60
2017-09-25T04:12:03.806Z,22.83
2017-09-25T04:14:31.255Z,20.48
2017-09-25T04:16:57.572Z,18.77
2017-09-25T04:19:23.941Z,22.95
2017-09-25T04:21:50.338Z,21.15
2017-09-25T04:24:16.748Z,26.12
2017-09-25T04:26:43.168Z,25.85
2017-09-25T04:29:09.532Z,24.17
2017-09-25T04:31:35.927Z,23.95
2017-09-25T04:34:03.019Z,24.23
2017-09-25T04:36:30.128Z,24.92
2017-09-25T04:38:56.480Z,19.62
2017-09-25T04:41:23.333Z,26.35
2017-09-25T04:43:49.731Z,26.65
2017-09-25T04:46:16.122Z,29.52
2017-09-25T04:48:42.524Z,35.72
2017-09-25T04:51:09.633Z,36.60
2017-09-25T04:53:36.011Z,30.33
2017-09-25T04:56:03.192Z,40.03
2017-09-25T04:58:29.616Z,39.95
2017-09-25T05:00:55.963Z,36.45
2017-09-25T05:03:22.446Z,27.73
2017-09-25T05:05:49.528Z,32.88
2017-09-25T05:08:16.214Z,34.83
2017-09-25T05:10:42.585Z,34.05
2017-09-25T05:13:08.952Z,30.05
2017-09-25T05:15:35.329Z,36.95
2017-09-25T05:18:02.440Z,40.55
2017-09-25T05:20:28.803Z,35.50
2017-09-25T05:22:55.932Z,44.65
2017-09-25T05:25:22.293Z,48.75
2017-09-25T05:27:49.401Z,46.58
2017-09-25T05:30:15.777Z,48.83
2017-09-25T05:32:42.135Z,55.25
2017-09-25T05:35:08.521Z,41.45
2017-09-25T05:37:35.616Z,55.35
2017-09-25T05:40:02.283Z,45.53
2017-09-25T05:42:29.400Z,39.60
2017-09-25T05:44:55.792Z,44.05
2017-09-25T05:47:22.211Z,42.78
2017-09-25T05:49:48.619Z,48.80
2017-09-25T05:52:14.989Z,40.08
2017-09-25T05:54:41.432Z,42.42
2017-09-25T05:57:07.839Z,34.42
2017-09-25T05:59:34.945Z,35.55
2017-09-25T06:02:01.594Z,35.90
2017-09-25T06:04:27.989Z,41.70
2017-09-25T06:06:54.328Z,37.63
2017-09-25T06:09:20.771Z,66.03
2017-09-25T06:11:47.469Z,50.80
2017-09-25T06:14:13.887Z,33.45
2017-09-25T06:16:40.289Z,62.40
2017-09-25T06:19:06.685Z,47.13
2017-09-25T06:21:33.043Z,32.92
2017-09-25T06:23:59.800Z,31.85
2017-09-25T06:26:26.928Z,34.75
2017-09-25T06:28:53.288Z,46.90
2017-09-25T06:31:19.672Z,32.40
2017-09-25T06:33:46.077Z,30.05
2017-09-25T06:36:12.464Z,28.65
2017-09-25T06:38:39.527Z,32.67
2017-09-25T06:41:06.216Z,28.15
2017-09-25T06:43:32.555Z,31.17
2017-09-25T06:45:58.975Z,32.95
2017-09-25T06:48:25.374Z,47.90
2017-09-25T06:50:51.768Z,26.95
2017-09-25T06:53:18.877Z,27.77
2017-09-25T06:55:45.398Z,23.23
2017-09-25T06:58:12.392Z,25.40
2017-09-25T07:00:39.514Z,22.50
2017-09-25T07:03:06.101Z,34.75
2017-09-25T07:05:32.473Z,28.62
2017-09-25T07:07:59.159Z,25.48
2017-09-25T07:10:25.549Z,31.58
2017-09-25T07:12:51.942Z,28.33
2017-09-25T07:15:18.321Z,31.17
2017-09-25T07:17:44.706Z,30.50
2017-09-25T07:20:11.145Z,36.40
2017-09-25T07:22:37.511Z,41.17
2017-09-25T07:25:03.893Z,38.83
2017-09-25T07:27:30.283Z,45.05
2017-09-25T07:29:57.394Z,38.10
2017-09-25T07:32:23.804Z,36.75
2017-09-25T07:34:50.489Z,42.92
2017-09-25T07:37:17.591Z,44.00
2017-09-25T07:39:44.983Z,44.08
2017-09-25T07:42:11.369Z,44.13
2017-09-25T07:44:37.742Z,49.10
2017-09-25T07:47:04.133Z,46.85
2017-09-25T07:49:30.537Z,64.43
2017-09-25T07:51:56.951Z,55.97
2017-09-25T07:54:24.105Z,65.82
2017-09-25T07:56:50.808Z,60.03
2017-09-25T07:59:17.177Z,44.72
2017-09-25T08:01:43.642Z,38.22
2017-09-25T08:04:10.117Z,36.20
2017-09-25T08:06:36.470Z,48.38
2017-09-25T08:09:03.631Z,41.23
2017-09-25T08:11:29.971Z,49.67
2017-09-25T08:13:56.332Z,45.10
2017-09-25T08:16:22.705Z,42.63
2017-09-25T08:18:50.140Z,42.50
2017-09-25T08:21:16.507Z,54.03
2017-09-25T08:23:42.873Z,34.07
2017-09-25T08:26:09.250Z,47.13
2017-09-25T08:28:36.371Z,34.70
2017-09-25T08:31:02.752Z,34.20
2017-09-25T08:33:29.218Z,34.73
2017-09-25T08:35:55.843Z,36.97
2017-09-25T08:38:22.196Z,37.00
2017-09-25T08:40:55.593Z,37.20
2017-09-25T08:43:22.698Z,36.60
2017-09-25T08:45:49.080Z,33.67
2017-09-25T08:48:16.233Z,48.30
2017-09-25T08:50:43.360Z,39.37
2017-09-25T08:53:09.757Z,44.80
2017-09-25T08:55:36.104Z,39.67
2017-09-25T08:58:02.769Z,37.00
2017-09-25T09:00:29.147Z,40.60
2017-09-25T09:02:55.557Z,36.67
2017-09-25T09:05:21.907Z,37.30
2017-09-25T09:07:48.291Z,40.90
2017-09-25T09:10:14.682Z,35.73
2017-09-25T09:12:41.029Z,40.23
2017-09-25T09:15:07.448Z,33.50
2017-09-25T09:17:33.792Z,38.23
2017-09-25T09:20:00.162Z,36.13
2017-09-25T09:22:26.518Z,37.13
2017-09-25T09:24:53.199Z,35.40
2017-09-25T09:27:19.600Z,35.20
2017-09-25T09:29:45.942Z,50.43
2017-09-25T09:32:12.387Z,38.43
2017-09-25T09:34:38.804Z,39.33
2017-09-25T09:37:05.216Z,29.20
2017-09-25T09:39:31.608Z,32.17
2017-09-25T09:41:58.333Z,32.77
2017-09-25T09:44:25.450Z,34.13
2017-09-25T09:46:51.852Z,32.50
2017-09-25T09:49:18.245Z,36.83
2017-09-25T09:51:45.328Z,45.43
2017-09-25T09:54:11.764Z,57.73
2017-09-25T09:56:38.114Z,40.90
2017-09-25T09:59:04.480Z,39.37
2017-09-25T10:01:31.602Z,39.63
2017-09-25T10:03:57.991Z,44.53
2017-09-25T10:06:24.344Z,40.40
2017-09-25T10:08:50.713Z,41.70
2017-09-25T10:11:17.991Z,45.23
2017-09-25T10:13:44.441Z,37.10
2017-09-25T10:16:10.849Z,42.57
2017-09-25T10:18:37.202Z,37.20
2017-09-25T10:21:03.883Z,32.03
2017-09-25T10:23:30.242Z,33.23
2017-09-25T10:25:57.319Z,34.97
2017-09-25T10:28:23.737Z,33.10
2017-09-25T10:30:50.043Z,32.00
2017-09-25T10:33:17.175Z,29.20
2017-09-25T10:35:44.285Z,28.07
2017-09-25T10:38:10.658Z,26.10
2017-09-25T10:40:37.788Z,25.17
2017-09-25T10:43:04.540Z,24.63
2017-09-25T10:45:31.671Z,27.60
2017-09-25T10:47:58.094Z,24.63
2017-09-25T10:50:24.458Z,22.50
2017-09-25T10:52:51.564Z,21.10
2017-09-25T10:55:17.942Z,23.20
2017-09-25T10:57:44.322Z,24.97
2017-09-25T11:00:10.698Z,29.37
2017-09-25T11:02:37.808Z,21.60
2017-09-25T11:05:05.401Z,18.40
2017-09-25T11:07:31.777Z,20.00
2017-09-25T11:09:58.140Z,21.77
2017-09-25T11:12:24.476Z,16.20
2017-09-25T11:14:50.860Z,18.33
2017-09-25T11:17:18.390Z,17.13
2017-09-25T11:19:44.823Z,15.23
2017-09-25T11:22:11.197Z,19.67
2017-09-25T11:24:37.575Z,15.87
2017-09-25T11:27:03.939Z,18.70
2017-09-25T11:29:30.322Z,19.33
2017-09-25T11:31:57.457Z,15.70
2017-09-25T11:34:23.817Z,15.30
2017-09-25T11:36:50.179Z,21.97
2017-09-25T11:39:16.851Z,18.20
2017-09-25T11:41:43.202Z,26.37
2017-09-25T11:44:10.290Z,16.93
2017-09-25T11:46:36.710Z,14.20
2017-09-25T11:49:03.054Z,13.00
2017-09-25T11:51:29.500Z,13.67
2017-09-25T11:53:55.878Z,21.27
2017-09-25T11:56:22.529Z,18.40
2017-09-25T11:58:48.920Z,24.27
2017-09-25T12:01:15.292Z,12.40
2017-09-25T12:03:41.645Z,12.10
2017-09-25T12:06:08.065Z,12.93
2017-09-25T12:08:34.457Z,16.60
2017-09-25T12:11:01.545Z,20.03
2017-09-25T12:13:28.003Z,14.87
2017-09-25T12:15:54.372Z,18.10
2017-09-25T12:18:21.476Z,15.93
2017-09-25T12:20:47.854Z,14.27
2017-09-25T12:23:14.516Z,18.40
2017-09-25T12:25:41.616Z,14.43
2017-09-25T12:28:07.962Z,13.50
2017-09-25T12:30:35.696Z,9.80
2017-09-25T12:33:02.823Z,10.73
2017-09-25T12:35:29.206Z,16.93
2017-09-25T12:37:56.291Z,8.80
2017-09-25T12:40:22.633Z,17.90
2017-09-25T12:42:48.982Z,20.27
2017-09-25T12:45:16.151Z,17.87
2017-09-25T12:47:42.514Z,17.03
2017-09-25T12:50:09.023Z,15.83
2017-09-25T12:52:35.360Z,14.37
2017-09-25T12:55:01.807Z,16.80
2017-09-25T12:57:28.195Z,18.43
2017-09-25T12:59:55.293Z,23.20
2017-09-25T13:02:21.656Z,15.00
2017-09-25T13:04:48.033Z,20.57
2017-09-25T13:07:14.730Z,18.70
2017-09-25T13:09:41.112Z,21.30
2017-09-25T13:12:07.468Z,21.17
2017-09-25T13:14:33.869Z,17.10
2017-09-25T13:17:00.227Z,29.23
2017-09-25T13:19:26.787Z,22.70
2017-09-25T13:21:53.182Z,21.97
2017-09-25T13:24:19.551Z,27.10
2017-09-25T13:26:46.681Z,24.20
2017-09-25T13:29:13.061Z,22.87
2017-09-25T13:31:40.278Z,22.70
2017-09-25T13:34:07.378Z,29.33
2017-09-25T13:36:33.787Z,26.53
2017-09-25T13:39:00.178Z,26.13
2017-09-25T13:41:26.555Z,27.03
2017-09-25T13:43:52.900Z,26.30
2017-09-25T13:46:19.291Z,20.73
2017-09-25T13:48:46.385Z,19.13
2017-09-25T13:51:12.783Z,20.17
2017-09-25T13:53:39.215Z,22.40
2017-09-25T13:56:05.598Z,26.20
2017-09-25T13:58:31.929Z,26.90
2017-09-25T14:03:31.002Z,25.47
2017-09-25T14:05:57.379Z,23.50
2017-09-25T14:08:24.477Z,27.83
2017-09-25T14:10:50.918Z,23.87
2017-09-25T14:13:17.268Z,21.53
2017-09-25T14:15:43.628Z,21.70
2017-09-25T14:18:10.732Z,23.80
2017-09-25T14:20:37.122Z,20.60
2017-09-25T14:23:03.476Z,23.90
2017-09-25T14:25:29.798Z,21.67
2017-09-25T14:27:56.186Z,21.17
2017-09-25T14:30:23.268Z,17.13
2017-09-25T14:32:49.655Z,29.93
2017-09-25T14:35:16.002Z,22.47
2017-09-25T14:37:42.439Z,25.00
2017-09-25T14:40:08.776Z,26.93
2017-09-25T14:42:35.170Z,29.83
2017-09-25T14:45:01.528Z,21.30
2017-09-25T14:47:27.904Z,25.90
2017-09-25T14:49:54.269Z,20.60
2017-09-25T14:52:21.349Z,19.50
2017-09-25T14:54:47.761Z,18.67
2017-09-25T14:57:14.191Z,24.60
2017-09-25T14:59:40.540Z,24.10
2017-09-25T15:02:18.218Z,28.33
2017-09-25T15:07:42.241Z,33.07
2017-09-25T15:10:09.334Z,27.80
2017-09-25T15:12:35.706Z,25.70
2017-09-25T15:15:02.071Z,26.73
2017-09-25T15:17:28.712Z,29.57
2017-09-25T15:19:55.076Z,26.80
2017-09-25T15:22:21.471Z,29.40
2017-09-25T15:24:47.870Z,27.60
2017-09-25T15:27:14.302Z,33.40
2017-09-25T15:29:40.737Z,28.47
2017-09-25T15:32:07.159Z,33.00
2017-09-25T15:34:33.881Z,31.70
2017-09-25T15:37:01.076Z,31.50
2017-09-25T15:39:27.509Z,34.67
2017-09-25T15:41:54.671Z,34.60
2017-09-25T15:44:21.355Z,36.47
2017-09-25T15:46:47.923Z,34.10
2017-09-25T15:49:15.164Z,42.67
2017-09-25T15:51:41.616Z,35.27
2017-09-25T15:54:08.125Z,31.07
2017-09-25T15:56:34.512Z,37.53
2017-09-25T15:59:00.921Z,34.17
2017-09-25T16:01:27.939Z,34.40
2017-09-25T16:03:54.339Z,37.00
2017-09-25T16:06:20.779Z,31.70
2017-09-25T16:08:47.136Z,39.97
2017-09-25T16:11:13.509Z,32.53
2017-09-25T16:13:40.614Z,38.10
2017-09-25T16:16:07.040Z,40.50
2017-09-25T16:18:33.406Z,32.40
2017-09-25T16:21:00.506Z,34.97
2017-09-25T16:23:26.902Z,37.40
2017-09-25T16:25:53.280Z,32.03
2017-09-25T16:28:19.640Z,33.77
2017-09-25T16:30:46.389Z,29.43
2017-09-25T16:33:13.531Z,37.60
2017-09-25T16:35:40.657Z,97.93
2017-09-25T16:41:07.931Z,67.37
2017-09-25T16:43:35.075Z,55.53
2017-09-25T16:46:01.460Z,44.83
2017-09-25T16:48:27.881Z,42.13
2017-09-25T16:50:54.251Z,42.30
2017-09-25T16:53:20.628Z,47.80
2017-09-25T16:55:47.823Z,38.40
2017-09-25T16:58:14.208Z,40.37
2017-09-25T17:00:40.557Z,35.77
2017-09-25T17:03:06.949Z,39.00
2017-09-25T17:05:33.295Z,40.93
2017-09-25T17:08:00.392Z,32.27
2017-09-25T17:10:26.780Z,37.40
2017-09-25T17:12:53.173Z,38.60
2017-09-25T17:15:19.556Z,37.80
2017-09-25T17:17:46.256Z,40.77
2017-09-25T17:20:13.358Z,33.23
2017-09-25T17:22:39.727Z,41.30
2017-09-25T17:25:06.144Z,33.93
2017-09-25T17:27:32.550Z,41.13
2017-09-25T17:29:58.968Z,49.03
2017-09-25T17:32:25.401Z,36.73
2017-09-25T17:34:51.807Z,46.53
2017-09-25T17:37:18.169Z,41.57
2017-09-25T17:39:44.579Z,36.50
2017-09-25T17:42:10.917Z,35.30
2017-09-25T17:44:37.323Z,44.60
2017-09-25T17:47:03.752Z,40.30
2017-09-25T17:49:30.177Z,43.47
2017-09-25T17:51:57.301Z,47.83
2017-09-25T17:54:24.061Z,44.23
2017-09-25T17:56:51.159Z,44.60
2017-09-25T17:59:17.588Z,39.37
2017-09-25T18:01:43.997Z,46.53
2017-09-25T18:04:10.407Z,46.10
2017-09-25T18:06:37.562Z,40.00
2017-09-25T18:09:04.043Z,39.83
2017-09-25T18:11:30.552Z,35.57
2017-09-25T18:13:56.963Z,38.07
2017-09-25T18:16:23.440Z,43.60
2017-09-25T18:18:49.862Z,45.80
2017-09-25T18:21:16.267Z,44.97
2017-09-25T18:23:42.707Z,45.40
2017-09-25T18:26:09.096Z,39.50
2017-09-25T18:28:36.247Z,43.57
2017-09-25T18:31:03.429Z,55.73
2017-09-25T18:33:29.842Z,52.07
2017-09-25T18:35:56.237Z,95.30
2017-09-25T18:38:22.750Z,87.00
2017-09-25T18:40:49.131Z,77.00
2017-09-25T18:43:15.620Z,81.57
2017-09-25T18:45:42.062Z,60.60
2017-09-25T18:48:08.558Z,48.43
2017-09-25T18:50:34.990Z,40.80
2017-09-25T18:53:01.454Z,39.63
2017-09-25T18:55:28.053Z,39.10
2017-09-25T18:57:55.300Z,40.40
2017-09-25T19:00:21.749Z,41.43
2017-09-25T19:02:48.220Z,50.43
2017-09-25T19:05:15.442Z,56.83
2017-09-25T19:07:41.901Z,43.77
2017-09-25T19:10:09.062Z,53.33
2017-09-25T19:12:36.269Z,48.27
2017-09-25T19:15:02.707Z,43.90
2017-09-25T19:17:29.196Z,46.20
2017-09-25T19:19:55.668Z,50.03
2017-09-25T19:22:22.107Z,39.47
2017-09-25T19:24:48.867Z,53.13
2017-09-25T19:27:17.050Z,51.33
2017-09-25T19:29:43.529Z,41.07
2017-09-25T19:32:09.996Z,43.53
2017-09-25T19:34:37.211Z,39.30
2017-09-25T19:37:03.660Z,38.40
2017-09-25T19:39:30.179Z,40.97
2017-09-25T19:41:56.597Z,41.50
2017-09-25T19:44:23.109Z,51.27
2017-09-25T19:46:49.584Z,55.73
2017-09-25T19:49:30.953Z,67.27
2017-09-25T19:51:57.426Z,48.13
2017-09-25T19:54:24.795Z,39.87
2017-09-25T19:56:52.173Z,47.40
2017-09-25T19:59:18.625Z,44.70
2017-09-25T20:01:45.090Z,49.93
2017-09-25T20:04:11.604Z,60.53
2017-09-25T20:06:38.082Z,56.03
2017-09-25T20:09:04.553Z,51.23
2017-09-25T20:11:30.989Z,52.40
2017-09-25T20:13:59.205Z,47.30
2017-09-25T20:16:28.354Z,43.40
2017-09-25T20:18:54.770Z,48.40
2017-09-25T20:21:21.924Z,46.53
2017-09-25T20:23:48.326Z,47.77
2017-09-25T20:26:14.733Z,56.47
2017-09-25T20:28:41.844Z,49.77
2017-09-25T20:31:08.212Z,49.23
2017-09-25T20:33:35.323Z,42.50
2017-09-25T20:36:01.678Z,44.40
2017-09-25T20:38:28.141Z,47.40
2017-09-25T20:43:54.035Z,45.23
2017-09-25T20:46:20.465Z,38.73
2017-09-25T20:48:46.907Z,41.30
2017-09-25T20:51:13.321Z,42.27
2017-09-25T20:53:40.067Z,45.17
2017-09-25T20:56:06.682Z,39.50
2017-09-25T21:01:33.293Z,45.47
2017-09-25T21:04:00.006Z,45.77
2017-09-25T21:06:27.175Z,46.37
2017-09-25T21:08:54.292Z,49.87
2017-09-25T21:11:20.661Z,45.63
2017-09-25T21:13:47.086Z,51.07
2017-09-25T21:16:14.232Z,47.53
2017-09-25T21:18:40.599Z,44.47
2017-09-25T21:21:07.315Z,49.43
2017-09-25T21:23:33.698Z,43.30
2017-09-25T21:26:00.818Z,42.30
2017-09-25T21:28:27.232Z,52.37
2017-09-25T21:30:53.587Z,52.47
2017-09-25T21:33:19.963Z,48.73
2017-09-25T21:35:47.038Z,48.77
2017-09-25T21:38:13.427Z,46.37
2017-09-25T21:40:39.801Z,41.13
2017-09-25T21:43:06.408Z,42.90
2017-09-25T21:45:32.839Z,49.20
2017-09-25T21:47:59.941Z,46.43
2017-09-25T21:50:26.400Z,41.30
2017-09-25T21:52:52.770Z,49.03
2017-09-25T21:55:19.185Z,41.97
2017-09-25T21:57:49.683Z,46.50
2017-09-25T22:00:16.047Z,41.73
2017-09-25T22:02:42.431Z,41.90
2017-09-25T22:05:08.787Z,43.47
2017-09-25T22:07:35.917Z,55.23
2017-09-25T22:10:02.349Z,45.83
2017-09-25T22:12:28.710Z,47.20
2017-09-25T22:14:55.779Z,41.20
2017-09-25T22:17:22.424Z,44.20
2017-09-25T22:19:48.783Z,45.90
2017-09-25T22:22:15.134Z,41.90
2017-09-25T22:24:42.274Z,49.33
2017-09-25T22:27:09.397Z,48.87
2017-09-25T22:29:35.797Z,46.00
2017-09-25T22:32:02.172Z,42.80
2017-09-25T22:34:28.610Z,50.60
2017-09-25T22:36:55.000Z,51.40
2017-09-25T22:39:22.148Z,48.03
2017-09-25T22:41:48.528Z,48.83
2017-09-25T22:44:20.105Z,47.47
2017-09-25T22:46:46.502Z,41.77
2017-09-25T22:49:13.259Z,50.10
2017-09-25T22:51:40.406Z,53.47
2017-09-25T22:54:06.842Z,47.83
2017-09-25T22:56:33.268Z,46.88
2017-09-25T22:58:59.662Z,44.97
2017-09-25T23:01:26.078Z,45.90
2017-09-25T23:04:09.231Z,48.23
2017-09-25T23:06:46.409Z,46.33
2017-09-25T23:12:14.776Z,43.35
2017-09-25T23:14:41.132Z,50.47
2017-09-25T23:17:07.547Z,47.17
2017-09-25T23:19:33.912Z,47.53
2017-09-25T23:22:00.680Z,47.40
2017-09-25T23:24:27.079Z,51.40
2017-09-25T23:26:54.215Z,46.30
2017-09-25T23:29:20.603Z,45.65
2017-09-25T23:31:47.809Z,45.28
2017-09-25T23:34:14.199Z,45.55
2017-09-25T23:36:40.560Z,49.30
2017-09-25T23:39:06.941Z,49.93
2017-09-25T23:41:33.315Z,42.25
2017-09-25T23:43:59.700Z,50.67
2017-09-25T23:46:26.083Z,43.30
2017-09-25T23:48:52.456Z,44.65
2017-09-25T23:51:18.801Z,47.73
2017-09-25T23:53:45.155Z,48.78
2017-09-25T23:56:12.058Z,50.20
2017-09-25T23:58:38.405Z,57.13
